Time;durP1;ratioP1;P1;durP2;ratioP2;P2;SDS_P1;SDS_P2;PMS_P1;PMS_P2;Temp;Humidity;BMP_temperature;BMP_pressure;BME280_temperature;BME280_humidity;BME280_pressure;Samples;Min_cycle;Max_cycle;Signal;HPM_P1;HPM_P2
2021/12/13 00:03:47;;;;;;;22.87;8.87;;;;;4.10;97123.00;;;;8432388;28;20652;-75
2021/12/13 00:07:56;;;;;;;34.10;10.80;;;;;4.20;97123.00;;;;8431162;28;20555;-75
2021/12/13 00:12:05;;;;;;;30.03;9.97;;;;;4.40;97127.00;;;;8432337;28;20218;-75
2021/12/13 00:16:09;;;;;;;36.07;10.13;;;;;4.40;97129.00;;;;8432332;28;20650;-75
2021/12/13 00:20:45;;;;;;;30.80;10.37;;;;;4.50;97125.00;;;;8431819;28;20691;-75
2021/12/13 00:24:50;;;;;;;36.53;10.33;;;;;4.50;97125.00;;;;8432013;28;20234;-74
2021/12/13 00:28:55;;;;;;;35.57;10.47;;;;;4.50;97119.00;;;;8431154;28;20272;-74
2021/12/13 00:33:36;;;;;;;32.43;10.00;;;;;4.50;97123.00;;;;8431578;28;20234;-74
2021/12/13 00:37:42;;;;;;;38.70;10.80;;;;;4.50;97122.00;;;;8431901;28;20222;-74
2021/12/13 00:42:16;;;;;;;46.10;11.10;;;;;4.50;97136.00;;;;8431089;28;20645;-73
2021/12/13 00:46:24;;;;;;;42.40;11.27;;;;;4.50;97144.00;;;;8430365;28;20589;-73
2021/12/13 00:50:35;;;;;;;40.53;10.70;;;;;4.60;97135.00;;;;8430975;28;20226;-73
2021/12/13 00:54:40;;;;;;;48.90;11.27;;;;;4.60;97141.00;;;;8430621;28;20249;-73
2021/12/13 00:59:19;;;;;;;45.57;11.40;;;;;4.60;97139.00;;;;8431208;28;20257;-73
2021/12/13 01:03:29;;;;;;;41.73;10.70;;;;;4.60;97143.00;;;;8430799;28;20321;-73
2021/12/13 01:08:08;;;;;;;40.50;10.73;;;;;4.50;97138.00;;;;8430687;28;20690;-73
2021/12/13 01:12:15;;;;;;;45.70;10.53;;;;;4.50;97140.00;;;;8430370;28;20221;-73
2021/12/13 01:16:36;;;;;;;101.40;12.63;;;;;4.40;97148.00;;;;8430444;28;20220;-72
2021/12/13 01:21:08;;;;;;;119.77;14.17;;;;;4.40;97151.00;;;;8430645;28;20218;-73
2021/12/13 01:25:24;;;;;;;243.03;16.97;;;;;4.40;97154.00;;;;8429855;28;20226;-72
2021/12/13 01:29:28;;;;;;;171.63;14.67;;;;;4.40;97151.00;;;;8429744;28;20244;-73
2021/12/13 01:34:06;;;;;;;295.07;17.07;;;;;4.40;97142.00;;;;8430105;28;20227;-73
2021/12/13 01:38:16;;;;;;;217.00;17.57;;;;;4.40;97159.00;;;;8429287;28;20723;-73
2021/12/13 01:42:23;;;;;;;170.80;14.50;;;;;4.40;97153.00;;;;8429499;28;20214;-73
2021/12/13 01:46:26;;;;;;;85.03;12.63;;;;;4.40;97152.00;;;;8430000;28;20230;-72
2021/12/13 01:50:41;;;;;;;64.43;13.13;;;;;4.40;97164.00;;;;8429257;28;20233;-72
2021/12/13 01:55:13;;;;;;;74.13;13.33;;;;;4.40;97154.00;;;;8429560;28;20249;-72
2021/12/13 02:04:22;;;;;;;45.60;11.70;;;;;4.30;97161.00;;;;8428603;28;20604;-73
2021/12/13 02:08:27;;;;;;;60.20;12.13;;;;;4.20;97161.00;;;;8427264;28;20224;-73
2021/12/13 02:12:36;;;;;;;42.40;11.87;;;;;4.20;97157.00;;;;8429194;28;20304;-73
2021/12/13 02:17:01;;;;;;;95.43;13.30;;;;;4.20;97151.00;;;;8428355;28;20221;-72
2021/12/13 02:21:11;;;;;;;56.53;11.97;;;;;4.10;97149.00;;;;8428089;28;20228;-72
2021/12/13 02:25:45;;;;;;;69.40;12.47;;;;;4.10;97146.00;;;;8428360;28;20560;-73
2021/12/13 02:29:50;;;;;;;140.63;15.30;;;;;4.10;97151.00;;;;8427766;28;20217;-73
2021/12/13 02:34:29;;;;;;;97.07;13.17;;;;;4.10;97141.00;;;;8427776;28;20648;-73
2021/12/13 02:38:33;;;;;;;80.97;12.33;;;;;4.00;97144.00;;;;8427981;28;20234;-73
2021/12/13 02:42:38;;;;;;;194.57;17.27;;;;;4.10;97133.00;;;;8427812;28;20219;-74
2021/12/13 02:46:41;;;;;;;120.60;13.40;;;;;4.10;97133.00;;;;8427754;28;20620;-74
2021/12/13 02:50:49;;;;;;;51.47;10.13;;;;;4.10;97136.00;;;;8427767;28;20593;-74
2021/12/13 02:55:22;;;;;;;50.00;11.27;;;;;4.10;97131.00;;;;8427154;28;20226;-74
2021/12/13 02:59:32;;;;;;;45.77;9.50;;;;;4.10;97135.00;;;;8427161;28;20659;-74
2021/12/13 03:03:39;;;;;;;40.87;9.63;;;;;4.20;97137.00;;;;8437564;22;20607;-74
2021/12/13 03:07:48;;;;;;;45.57;9.57;;;;;4.30;97150.00;;;;8348910;28;20255;-74
2021/12/13 03:11:54;;;;;;;38.83;9.73;;;;;4.30;97144.00;;;;8353938;28;20331;-74
2021/12/13 03:16:03;;;;;;;68.63;11.50;;;;;4.30;97148.00;;;;8350798;28;20931;-74
2021/12/13 03:20:30;;;;;;;68.30;11.43;;;;;4.30;97149.00;;;;8378082;28;20246;-74
2021/12/13 03:24:51;;;;;;;80.63;10.93;;;;;4.40;97152.00;;;;8368686;28;20263;-73
2021/12/13 03:29:07;;;;;;;92.80;14.63;;;;;4.50;97143.00;;;;8384844;28;20321;-73
2021/12/13 03:33:15;;;;;;;64.40;10.73;;;;;4.60;97139.00;;;;8365447;28;20219;-73
2021/12/13 03:37:22;;;;;;;98.40;11.60;;;;;4.50;97147.00;;;;8373791;28;20231;-74
2021/12/13 03:41:28;;;;;;;51.27;10.07;;;;;4.60;97142.00;;;;8382897;28;20594;-75
2021/12/13 03:45:36;;;;;;;32.10;7.93;;;;;4.60;97143.00;;;;8367801;28;20311;-73
2021/12/13 03:49:47;;;;;;;43.90;8.57;;;;;4.50;97143.00;;;;8380421;28;20239;-74
2021/12/13 03:53:52;;;;;;;56.07;9.73;;;;;4.50;97136.00;;;;8371848;28;20258;-74
2021/12/13 03:58:00;;;;;;;40.67;9.17;;;;;4.50;97143.00;;;;8366812;28;20260;-74
2021/12/13 04:02:08;;;;;;;55.37;9.67;;;;;4.50;97154.00;;;;8370473;28;20310;-74
2021/12/13 04:06:17;;;;;;;49.03;9.43;;;;;4.60;97161.00;;;;8391328;28;20284;-74
2021/12/13 04:10:23;;;;;;;46.70;9.53;;;;;4.60;97170.00;;;;8377944;28;20704;-74
2021/12/13 04:14:33;;;;;;;49.13;9.47;;;;;4.60;97175.00;;;;8381538;28;20644;-73
2021/12/13 04:19:06;;;;;;;61.20;10.53;;;;;4.50;97178.00;;;;8393672;28;20224;-73
2021/12/13 04:23:12;;;;;;;68.27;10.17;;;;;4.50;97195.00;;;;8383462;28;20675;-73
2021/12/13 04:27:22;;;;;;;60.07;9.07;;;;;4.60;97194.00;;;;8390403;28;20263;-75
2021/12/13 04:31:31;;;;;;;53.63;10.60;;;;;4.70;97201.00;;;;8387020;28;20916;-74
2021/12/13 04:35:35;;;;;;;74.43;10.80;;;;;4.80;97197.00;;;;8384913;28;20729;-76
2021/12/13 04:39:42;;;;;;;101.80;11.43;;;;;4.80;97201.00;;;;8374251;28;20266;-74
2021/12/13 04:43:47;;;;;;;157.77;12.20;;;;;4.70;97198.00;;;;8387376;28;20223;-77
2021/12/13 04:47:56;;;;;;;76.23;10.40;;;;;4.70;97199.00;;;;8385468;28;20699;-74
2021/12/13 04:57:25;;;;;;;128.77;11.03;;;;;4.70;97194.00;;;;8370673;28;20234;-74
2021/12/13 05:01:29;;;;;;;89.80;10.17;;;;;4.60;97193.00;;;;8388015;28;20259;-74
2021/12/13 05:05:35;;;;;;;119.50;11.37;;;;;4.60;97198.00;;;;8393623;28;20239;-75
2021/12/13 05:09:38;;;;;;;81.20;9.93;;;;;4.60;97203.00;;;;8384837;28;20326;-75
2021/12/13 05:13:48;;;;;;;59.33;9.90;;;;;4.50;97212.00;;;;8382431;28;20263;-75
2021/12/13 05:17:52;;;;;;;48.77;8.43;;;;;4.50;97209.00;;;;8382903;28;20878;-74
2021/12/13 05:21:58;;;;;;;45.43;8.43;;;;;4.50;97205.00;;;;8376611;28;20762;-74
2021/12/13 05:26:04;;;;;;;31.57;8.40;;;;;4.50;97202.00;;;;8360401;28;20313;-73
2021/12/13 05:30:14;;;;;;;36.53;7.83;;;;;4.50;97209.00;;;;8371381;28;20318;-73
2021/12/13 05:34:18;;;;;;;49.20;8.93;;;;;4.40;97217.00;;;;8381866;28;20233;-74
2021/12/13 05:38:30;;;;;;;41.67;8.37;;;;;4.50;97212.00;;;;8374872;28;20228;-74
2021/12/13 05:42:40;;;;;;;51.70;6.90;;;;;4.50;97206.00;;;;8372634;28;20658;-74
2021/12/13 05:46:47;;;;;;;58.83;8.50;;;;;4.50;97213.00;;;;8376842;28;20255;-73
2021/12/13 05:50:54;;;;;;;113.80;12.67;;;;;4.50;97219.00;;;;8370158;28;20231;-73
2021/12/13 05:55:02;;;;;;;44.70;8.40;;;;;4.50;97221.00;;;;8377789;28;20268;-74
2021/12/13 05:59:14;;;;;;;29.90;7.33;;;;;4.50;97221.00;;;;8365509;28;20311;-75
2021/12/13 06:03:31;;;;;;;28.00;7.53;;;;;4.50;97230.00;;;;8362361;28;20250;-76
2021/12/13 06:07:37;;;;;;;83.40;10.47;;;;;4.50;97236.00;;;;8368684;28;20655;-73
2021/12/13 06:11:51;;;;;;;79.77;8.03;;;;;4.50;97242.00;;;;8366438;28;20227;-73
2021/12/13 06:15:57;;;;;;;59.67;8.67;;;;;4.60;97244.00;;;;8377310;28;20227;-73
2021/12/13 06:20:13;;;;;;;50.03;8.73;;;;;4.60;97242.00;;;;8373245;28;20231;-74
2021/12/13 06:24:26;;;;;;;62.20;8.53;;;;;4.60;97241.00;;;;8386191;28;20835;-74
2021/12/13 06:28:33;;;;;;;99.10;8.50;;;;;4.70;97249.00;;;;8377958;28;20248;-74
2021/12/13 06:32:41;;;;;;;71.60;9.30;;;;;4.70;97255.00;;;;8377015;28;20235;-73
2021/12/13 06:36:47;;;;;;;150.40;11.37;;;;;4.80;97262.00;;;;8366750;28;20265;-74
2021/12/13 06:40:53;;;;;;;67.07;9.17;;;;;4.80;97268.00;;;;8377618;28;20265;-74
2021/12/13 06:44:56;;;;;;;161.93;16.13;;;;;4.80;97266.00;;;;8374555;28;20229;-74
2021/12/13 06:49:06;;;;;;;159.87;15.57;;;;;4.90;97276.00;;;;8374160;28;20245;-73
2021/12/13 06:53:14;;;;;;;78.97;9.77;;;;;4.90;97283.00;;;;8362206;28;20861;-72
2021/12/13 06:57:21;;;;;;;123.70;11.90;;;;;4.90;97281.00;;;;8373713;28;20234;-73
2021/12/13 07:01:24;;;;;;;53.57;11.57;;;;;4.90;97282.00;;;;8375796;28;20648;-74
2021/12/13 07:05:30;;;;;;;145.43;14.27;;;;;4.90;97292.00;;;;8374530;28;20746;-75
2021/12/13 07:09:35;;;;;;;170.63;13.03;;;;;5.00;97287.00;;;;8372852;28;20222;-74
2021/12/13 07:13:43;;;;;;;151.77;12.10;;;;;5.00;97299.00;;;;8368498;28;20933;-75
2021/12/13 07:18:01;;;;;;;112.33;10.90;;;;;5.00;97305.00;;;;8375150;28;20235;-74
2021/12/13 07:22:06;;;;;;;71.43;8.70;;;;;5.00;97297.00;;;;8380904;28;20237;-73
2021/12/13 07:26:12;;;;;;;276.63;16.57;;;;;5.10;97293.00;;;;8378809;28;20241;-73
2021/12/13 07:30:22;;;;;;;157.03;11.10;;;;;5.10;97297.00;;;;8369573;28;20655;-74
2021/12/13 07:34:25;;;;;;;188.93;10.37;;;;;5.20;97299.00;;;;8377787;28;20227;-75
2021/12/13 07:38:30;;;;;;;66.03;9.03;;;;;5.20;97304.00;;;;8361503;28;20256;-73
2021/12/13 07:42:34;;;;;;;139.07;10.13;;;;;5.20;97300.00;;;;8376556;28;20255;-73
2021/12/13 07:46:38;;;;;;;57.50;8.47;;;;;5.20;97302.00;;;;8373485;28;20334;-73
2021/12/13 07:50:42;;;;;;;92.40;10.23;;;;;5.20;97303.00;;;;8373849;28;20228;-73
2021/12/13 07:54:45;;;;;;;103.37;10.20;;;;;5.30;97304.00;;;;8375641;28;20243;-74
2021/12/13 07:58:53;;;;;;;83.97;9.53;;;;;5.40;97305.00;;;;8366387;28;20270;-74
2021/12/13 08:02:59;;;;;;;142.73;28.07;;;;;5.50;97302.00;;;;8378067;28;20323;-74
2021/12/13 08:07:10;;;;;;;226.27;17.07;;;;;5.60;97296.00;;;;8372601;28;20239;-74
2021/12/13 08:11:13;;;;;;;109.77;12.03;;;;;5.60;97297.00;;;;8382588;28;20232;-74
2021/12/13 08:15:22;;;;;;;96.07;11.93;;;;;5.60;97295.00;;;;8376644;28;20304;-74
2021/12/13 08:19:32;;;;;;;35.87;7.50;;;;;5.60;97301.00;;;;8381892;28;20269;-74
2021/12/13 08:23:50;;;;;;;44.60;7.67;;;;;5.70;97309.00;;;;8378874;28;20609;-75
2021/12/13 08:27:56;;;;;;;38.00;8.73;;;;;5.90;97323.00;;;;8386367;28;20330;-74
2021/12/13 08:32:07;;;;;;;36.43;7.60;;;;;6.10;97327.00;;;;8387779;28;20299;-75
2021/12/13 08:36:13;;;;;;;38.23;7.77;;;;;6.20;97331.00;;;;8387871;28;20243;-75
2021/12/13 08:40:20;;;;;;;63.37;12.20;;;;;6.30;97344.00;;;;8377372;28;20219;-74
2021/12/13 08:44:28;;;;;;;35.60;7.27;;;;;6.40;97344.00;;;;8391126;28;20303;-74
2021/12/13 08:48:44;;;;;;;29.03;7.10;;;;;6.50;97349.00;;;;8385688;28;20242;-75
2021/12/13 08:52:54;;;;;;;28.97;6.67;;;;;6.70;97361.00;;;;8375607;28;20223;-75
2021/12/13 08:56:58;;;;;;;26.13;6.60;;;;;6.80;97354.00;;;;8380398;28;20258;-75
2021/12/13 09:01:06;;;;;;;22.03;6.13;;;;;6.90;97363.00;;;;8377516;28;20235;-76
2021/12/13 09:05:14;;;;;;;28.97;5.87;;;;;7.00;97352.00;;;;8375821;28;20258;-76
2021/12/13 09:09:19;;;;;;;24.80;6.40;;;;;7.20;97363.00;;;;8383262;28;20224;-76
2021/12/13 09:13:40;;;;;;;24.23;6.27;;;;;7.20;97369.00;;;;8371777;28;20252;-75
2021/12/13 09:17:44;;;;;;;21.93;6.53;;;;;7.40;97373.00;;;;8372628;28;20588;-76
2021/12/13 09:21:54;;;;;;;19.83;5.57;;;;;7.50;97369.00;;;;8371446;28;20291;-77
2021/12/13 09:26:05;;;;;;;22.40;6.03;;;;;7.50;97372.00;;;;8371197;28;20585;-78
2021/12/13 09:30:29;;;;;;;22.50;6.47;;;;;7.50;97376.00;;;;8373746;28;20278;-77
2021/12/13 09:34:33;;;;;;;18.67;5.60;;;;;7.60;97380.00;;;;8362720;28;20252;-77
2021/12/13 09:38:42;;;;;;;27.47;6.40;;;;;7.70;97388.00;;;;8367587;28;20333;-76
2021/12/13 09:42:49;;;;;;;15.60;5.80;;;;;7.70;97386.00;;;;8374962;28;20310;-75
2021/12/13 09:47:00;;;;;;;23.40;6.03;;;;;7.60;97387.00;;;;8374542;28;20331;-76
2021/12/13 09:51:07;;;;;;;20.03;6.53;;;;;7.50;97386.00;;;;8379110;28;20910;-77
2021/12/13 09:55:17;;;;;;;21.83;6.33;;;;;7.40;97384.00;;;;8357405;28;20299;-76
2021/12/13 09:59:28;;;;;;;23.03;6.57;;;;;7.40;97372.00;;;;8372827;28;20224;-77
2021/12/13 10:03:43;;;;;;;23.27;7.10;;;;;7.30;97373.00;;;;8370941;28;20223;-76
2021/12/13 10:07:52;;;;;;;28.00;6.13;;;;;7.30;97370.00;;;;8377282;28;20307;-77
2021/12/13 10:12:01;;;;;;;17.70;5.77;;;;;7.10;97371.00;;;;8380518;28;20255;-77
2021/12/13 10:16:07;;;;;;;26.47;8.50;;;;;7.20;97362.00;;;;8377389;28;20224;-78
2021/12/13 10:20:15;;;;;;;48.43;19.70;;;;;7.30;97362.00;;;;8375758;28;20354;-78
2021/12/13 10:24:23;;;;;;;143.67;58.00;;;;;7.30;97363.00;;;;8372666;28;20239;-77
2021/12/13 10:28:33;;;;;;;53.40;19.70;;;;;7.40;97363.00;;;;8367493;28;20268;-77
2021/12/13 10:32:40;;;;;;;36.03;10.60;;;;;7.50;97360.00;;;;8380047;28;20616;-76
2021/12/13 10:36:48;;;;;;;80.53;39.10;;;;;7.50;97366.00;;;;8370115;28;20638;-77
2021/12/13 10:40:55;;;;;;;27.90;9.33;;;;;7.50;97360.00;;;;8379049;28;20254;-77
2021/12/13 10:45:01;;;;;;;41.77;21.70;;;;;7.60;97356.00;;;;8371663;28;20645;-77
2021/12/13 10:49:07;;;;;;;32.73;13.23;;;;;7.60;97354.00;;;;8369602;28;20333;-77
2021/12/13 10:53:12;;;;;;;246.80;139.07;;;;;7.70;97347.00;;;;8366653;28;20334;-76
2021/12/13 10:57:19;;;;;;;25.80;7.87;;;;;7.80;97348.00;;;;8370710;28;20258;-76
2021/12/13 11:01:27;;;;;;;139.33;83.30;;;;;7.80;97346.00;;;;8366753;28;20318;-77
2021/12/13 11:05:31;;;;;;;43.57;24.83;;;;;7.70;97340.00;;;;8371059;28;20236;-76
2021/12/13 11:09:37;;;;;;;30.30;14.77;;;;;7.70;97341.00;;;;8366130;28;20264;-77
2021/12/13 11:13:41;;;;;;;54.57;10.27;;;;;7.80;97343.00;;;;8365029;28;20307;-76
2021/12/13 11:17:47;;;;;;;30.53;14.63;;;;;7.90;97335.00;;;;8359738;28;20252;-77
2021/12/13 11:21:53;;;;;;;22.73;15.30;;;;;8.00;97336.00;;;;8366978;28;20248;-76
2021/12/13 11:26:02;;;;;;;15.40;5.47;;;;;8.10;97328.00;;;;8363932;28;20220;-76
2021/12/13 11:30:09;;;;;;;17.33;8.23;;;;;8.30;97327.00;;;;8362495;28;20248;-76
2021/12/13 11:34:47;;;;;;;23.47;12.43;;;;;8.40;97330.00;;;;8362119;28;20231;-75
2021/12/13 11:39:13;;;;;;;17.53;4.80;;;;;8.50;97326.00;;;;8345235;28;20228;-76
2021/12/13 11:43:34;;;;;;;15.50;5.43;;;;;8.50;97333.00;;;;8373017;28;20604;-75
2021/12/13 11:48:23;;;;;;;14.30;5.10;;;;;8.60;97327.00;;;;8382184;28;20255;-75
2021/12/13 11:53:04;;;;;;;11.17;4.30;;;;;8.60;97322.00;;;;8380312;28;20263;-75
2021/12/13 11:57:55;;;;;;;15.50;4.67;;;;;8.70;97326.00;;;;8381521;28;20331;-75
2021/12/13 12:02:10;;;;;;;8.70;4.17;;;;;8.80;97316.00;;;;8371341;28;20306;-75
2021/12/13 12:06:48;;;;;;;12.07;4.47;;;;;8.80;97317.00;;;;8375695;28;20223;-74
2021/12/13 12:11:13;;;;;;;9.70;5.17;;;;;8.80;97310.00;;;;8381528;28;20318;-75
2021/12/13 12:15:18;;;;;;;12.03;4.23;;;;;8.90;97315.00;;;;8373794;28;20226;-76
2021/12/13 12:19:25;;;;;;;12.17;4.50;;;;;8.90;97316.00;;;;8379084;28;20311;-74
2021/12/13 12:23:30;;;;;;;12.93;4.40;;;;;8.70;97324.00;;;;8372809;28;20231;-76
2021/12/13 12:27:37;;;;;;;12.17;4.73;;;;;8.60;97320.00;;;;8375209;28;20808;-75
2021/12/13 12:31:44;;;;;;;13.83;5.13;;;;;8.70;97321.00;;;;8381035;28;20707;-75
2021/12/13 12:35:48;;;;;;;13.57;4.63;;;;;8.70;97325.00;;;;8375734;28;20240;-76
2021/12/13 12:40:14;;;;;;;17.95;5.13;;;;;8.80;97327.00;;;;8372198;28;20255;-76
2021/12/13 12:44:28;;;;;;;25.07;6.70;;;;;8.80;97337.00;;;;8372571;28;20247;-75
2021/12/13 12:48:33;;;;;;;17.17;6.47;;;;;8.80;97329.00;;;;8381274;28;20751;-74
2021/12/13 12:52:47;;;;;;;16.53;4.93;;;;;8.80;97325.00;;;;8372809;28;20251;-75
2021/12/13 12:56:53;;;;;;;15.00;5.37;;;;;8.80;97321.00;;;;8373308;28;20254;-75
2021/12/13 13:01:02;;;;;;;10.93;4.70;;;;;8.80;97328.00;;;;8378500;28;20881;-75
2021/12/13 13:05:08;;;;;;;12.73;4.47;;;;;8.80;97331.00;;;;8375052;28;20227;-76
2021/12/13 13:09:11;;;;;;;10.73;4.20;;;;;8.80;97336.00;;;;8374925;28;20260;-76
2021/12/13 13:13:18;;;;;;;11.53;4.27;;;;;8.70;97327.00;;;;8378161;28;20644;-72
2021/12/13 13:17:25;;;;;;;9.60;4.00;;;;;8.50;97322.00;;;;8384778;28;20624;-76
2021/12/13 13:21:28;;;;;;;15.77;4.63;;;;;8.40;97320.00;;;;8384447;28;20828;-75
2021/12/13 13:25:34;;;;;;;9.60;4.20;;;;;8.40;97315.00;;;;8381211;28;20306;-76
2021/12/13 13:29:38;;;;;;;10.00;4.40;;;;;8.40;97314.00;;;;8374253;28;20263;-75
2021/12/13 13:33:46;;;;;;;10.80;4.13;;;;;8.30;97323.00;;;;8375671;28;20228;-75
2021/12/13 13:37:50;;;;;;;7.77;3.73;;;;;8.30;97322.00;;;;8374044;28;20952;-76
2021/12/13 13:41:58;;;;;;;12.63;4.00;;;;;8.30;97320.00;;;;8387570;28;20311;-74
2021/12/13 13:46:01;;;;;;;8.53;3.93;;;;;8.30;97332.00;;;;8373431;28;20256;-76
2021/12/13 13:50:20;;;;;;;11.27;3.67;;;;;8.30;97328.00;;;;8369561;28;20940;-75
2021/12/13 13:54:29;;;;;;;11.63;3.70;;;;;8.30;97328.00;;;;8370562;28;20315;-74
2021/12/13 13:58:37;;;;;;;8.07;3.73;;;;;8.30;97330.00;;;;8372009;28;20240;-75
2021/12/13 14:02:41;;;;;;;9.70;3.70;;;;;8.40;97332.00;;;;8370144;28;20307;-74
2021/12/13 14:06:50;;;;;;;7.77;3.50;;;;;8.30;97331.00;;;;8367095;28;20273;-72
2021/12/13 14:10:56;;;;;;;9.70;3.70;;;;;8.30;97335.00;;;;8369544;28;20950;-74
2021/12/13 14:15:05;;;;;;;7.97;3.13;;;;;8.30;97347.00;;;;8362806;28;20333;-73
2021/12/13 14:19:12;;;;;;;6.33;2.90;;;;;8.20;97354.00;;;;8367409;28;20628;-74
2021/12/13 14:23:23;;;;;;;6.47;3.57;;;;;8.20;97354.00;;;;8367691;28;20295;-72
2021/12/13 14:27:30;;;;;;;6.47;3.33;;;;;8.20;97350.00;;;;8366432;28;20263;-74
2021/12/13 14:31:48;;;;;;;11.53;5.27;;;;;8.20;97354.00;;;;8377780;28;20223;-73
2021/12/13 14:36:02;;;;;;;34.33;24.03;;;;;8.30;97354.00;;;;8377479;28;20713;-74
2021/12/13 14:40:08;;;;;;;13.60;8.40;;;;;8.30;97351.00;;;;8381207;28;20827;-75
2021/12/13 14:44:14;;;;;;;10.00;4.90;;;;;8.30;97353.00;;;;8377171;28;20673;-75
2021/12/13 14:48:19;;;;;;;18.30;10.70;;;;;8.30;97356.00;;;;8369136;28;20249;-74
2021/12/13 14:52:26;;;;;;;51.67;45.93;;;;;8.20;97359.00;;;;8379167;28;20688;-74
2021/12/13 14:56:31;;;;;;;119.87;53.67;;;;;8.10;97368.00;;;;8370063;28;20303;-74
2021/12/13 15:00:40;;;;;;;313.67;106.37;;;;;8.00;97369.00;;;;8377064;28;20310;-74
2021/12/13 15:04:46;;;;;;;91.13;49.90;;;;;7.90;97364.00;;;;8374911;28;20330;-74
2021/12/13 15:08:53;;;;;;;33.67;19.80;;;;;7.80;97365.00;;;;8378432;28;21054;-74
2021/12/13 15:13:00;;;;;;;12.60;6.63;;;;;7.70;97369.00;;;;8379545;28;20319;-74
2021/12/13 15:17:15;;;;;;;10.07;6.07;;;;;7.70;97365.00;;;;8385685;28;20633;-74
2021/12/13 15:21:21;;;;;;;15.37;5.10;;;;;7.70;97367.00;;;;8384887;28;20310;-73
2021/12/13 15:25:36;;;;;;;11.07;5.70;;;;;7.70;97366.00;;;;8376004;28;20315;-74
2021/12/13 15:29:41;;;;;;;34.07;14.97;;;;;7.70;97376.00;;;;8381010;28;20323;-74
2021/12/13 15:33:47;;;;;;;24.67;10.67;;;;;7.60;97378.00;;;;8386225;28;20318;-73
2021/12/13 15:37:55;;;;;;;16.33;8.73;;;;;7.60;97377.00;;;;8384733;28;20330;-74
2021/12/13 15:42:00;;;;;;;24.17;13.03;;;;;7.60;97387.00;;;;8384210;28;20263;-72
2021/12/13 15:46:17;;;;;;;41.70;18.90;;;;;7.60;97374.00;;;;8383566;28;20227;-74
2021/12/13 15:50:26;;;;;;;48.50;22.07;;;;;7.70;97389.00;;;;8382922;28;20753;-75
2021/12/13 15:54:32;;;;;;;32.73;17.37;;;;;7.70;97376.00;;;;8382695;28;20250;-74
2021/12/13 15:58:39;;;;;;;93.40;8.17;;;;;7.70;97375.00;;;;8377481;28;20727;-74
2021/12/13 16:02:44;;;;;;;425.30;19.60;;;;;7.70;97384.00;;;;8383433;28;20251;-74
2021/12/13 16:06:50;;;;;;;191.53;10.27;;;;;7.70;97376.00;;;;8379228;28;20418;-73
2021/12/13 16:10:53;;;;;;;383.53;16.33;;;;;7.60;97381.00;;;;8376119;28;20680;-75
2021/12/13 16:14:59;;;;;;;149.83;7.77;;;;;7.60;97381.00;;;;8378782;28;20317;-74
2021/12/13 16:19:03;;;;;;;221.03;9.67;;;;;7.60;97378.00;;;;8375177;28;20298;-76
2021/12/13 16:23:11;;;;;;;173.90;8.80;;;;;7.50;97376.00;;;;8379885;28;20307;-75
2021/12/13 16:27:14;;;;;;;555.00;22.40;;;;;7.40;97378.00;;;;8379724;28;20240;-75
2021/12/13 16:31:19;;;;;;;138.90;8.20;;;;;7.30;97374.00;;;;8379734;28;20242;-74
2021/12/13 16:35:26;;;;;;;359.90;13.43;;;;;7.30;97364.00;;;;8378177;28;20223;-71
2021/12/13 16:39:33;;;;;;;384.63;15.63;;;;;7.30;97372.00;;;;8373937;28;20677;-71
2021/12/13 16:43:42;;;;;;;205.97;9.67;;;;;7.20;97378.00;;;;8372735;28;20234;-71
2021/12/13 16:47:46;;;;;;;268.60;12.53;;;;;7.20;97377.00;;;;8371408;28;20904;-71
2021/12/13 16:51:53;;;;;;;372.50;14.57;;;;;7.00;97376.00;;;;8380133;28;20220;-71
2021/12/13 16:55:57;;;;;;;352.33;14.37;;;;;6.90;97385.00;;;;8377444;28;20326;-71
2021/12/13 17:00:06;;;;;;;391.20;17.57;;;;;6.70;97381.00;;;;8371556;28;20311;-71
2021/12/13 17:04:13;;;;;;;16.57;4.23;;;;;6.60;97382.00;;;;8368665;28;20315;-73
2021/12/13 17:08:22;;;;;;;77.80;6.13;;;;;6.70;97383.00;;;;8372078;28;20251;-71
2021/12/13 17:12:27;;;;;;;143.17;8.90;;;;;6.70;97381.00;;;;8372294;28;20215;-70
2021/12/13 17:16:35;;;;;;;206.90;10.73;;;;;6.70;97387.00;;;;8371238;28;20224;-71
2021/12/13 17:20:38;;;;;;;100.53;8.40;;;;;6.60;97389.00;;;;8371783;28;20257;-70
2021/12/13 17:24:52;;;;;;;25.37;6.47;;;;;6.50;97388.00;;;;8370950;28;20545;-71
2021/12/13 17:29:06;;;;;;;24.60;6.93;;;;;6.50;97387.00;;;;8380179;28;20231;-71
2021/12/13 17:33:09;;;;;;;38.43;7.60;;;;;6.50;97386.00;;;;8380435;28;20676;-71
2021/12/13 17:37:31;;;;;;;37.80;10.43;;;;;6.50;97390.00;;;;8382143;28;20659;-71
2021/12/13 17:41:53;;;;;;;128.03;13.67;;;;;6.60;97395.00;;;;8391325;28;20255;-70
2021/12/13 17:45:59;;;;;;;170.60;13.43;;;;;6.70;97403.00;;;;8368551;28;20305;-70
2021/12/13 17:50:15;;;;;;;75.40;12.10;;;;;6.70;97393.00;;;;8373936;28;20292;-70
2021/12/13 17:54:18;;;;;;;497.60;25.30;;;;;6.70;97394.00;;;;8380690;28;20307;-71
2021/12/13 17:58:26;;;;;;;167.53;13.23;;;;;6.70;97392.00;;;;8369930;28;21070;-71
2021/12/13 18:02:30;;;;;;;301.17;16.83;;;;;6.70;97396.00;;;;8380873;28;20316;-71
2021/12/13 18:06:41;;;;;;;139.33;13.73;;;;;6.70;97404.00;;;;8384380;28;20223;-71
2021/12/13 18:10:45;;;;;;;199.43;13.63;;;;;6.70;97411.00;;;;8374676;28;20722;-71
2021/12/13 18:15:01;;;;;;;393.70;20.23;;;;;6.80;97402.00;;;;8380878;28;20681;-71
2021/12/13 18:19:06;;;;;;;138.70;11.70;;;;;6.80;97410.00;;;;8383420;28;20315;-71
2021/12/13 18:23:16;;;;;;;179.43;13.47;;;;;6.80;97414.00;;;;8369078;28;20246;-70
2021/12/13 18:27:28;;;;;;;44.40;7.20;;;;;6.80;97411.00;;;;8374079;28;20576;-71
2021/12/13 18:31:36;;;;;;;48.40;13.03;;;;;6.90;97413.00;;;;8377738;28;20325;-71
2021/12/13 18:35:42;;;;;;;159.57;15.80;;;;;6.90;97420.00;;;;8383110;28;20238;-70
2021/12/13 18:39:48;;;;;;;269.00;15.23;;;;;7.00;97416.00;;;;8382542;28;20262;-72
2021/12/13 18:44:16;;;;;;;354.63;17.80;;;;;7.00;97415.00;;;;8385437;28;20219;-70
2021/12/13 18:48:24;;;;;;;223.63;11.60;;;;;7.10;97418.00;;;;8378345;28;20254;-71
2021/12/13 18:52:32;;;;;;;196.50;11.33;;;;;7.10;97427.00;;;;8369977;28;20268;-71
2021/12/13 18:56:38;;;;;;;207.67;11.67;;;;;7.00;97427.00;;;;8373056;28;20307;-71
2021/12/13 19:00:45;;;;;;;321.07;13.63;;;;;7.00;97415.00;;;;8376525;28;20258;-71
2021/12/13 19:05:00;;;;;;;115.37;8.90;;;;;6.90;97422.00;;;;8380294;28;20238;-70
2021/12/13 19:09:10;;;;;;;120.20;9.90;;;;;7.00;97425.00;;;;8377391;28;20235;-72
2021/12/13 19:13:27;;;;;;;159.60;10.97;;;;;7.00;97424.00;;;;8383280;28;20732;-70
2021/12/13 19:17:34;;;;;;;201.77;11.23;;;;;7.00;97420.00;;;;8379596;28;20216;-71
2021/12/13 19:21:44;;;;;;;358.30;17.27;;;;;7.00;97424.00;;;;8383946;28;20224;-71
2021/12/13 19:25:51;;;;;;;223.57;14.03;;;;;6.90;97422.00;;;;8378670;28;20239;-70
2021/12/13 19:29:56;;;;;;;276.30;14.87;;;;;6.80;97423.00;;;;8365824;28;20243;-70
2021/12/13 19:34:14;;;;;;;127.90;12.67;;;;;6.80;97418.00;;;;8383814;28;20223;-71
2021/12/13 19:38:22;;;;;;;259.20;13.83;;;;;6.80;97417.00;;;;8382125;28;20303;-70
2021/12/13 19:42:33;;;;;;;179.30;11.77;;;;;6.90;97411.00;;;;8383106;28;20911;-70
2021/12/13 19:46:41;;;;;;;281.73;14.60;;;;;6.90;97414.00;;;;8379441;28;20243;-70
2021/12/13 19:50:47;;;;;;;288.97;15.60;;;;;6.90;97392.00;;;;8381137;28;20326;-71
2021/12/13 19:54:58;;;;;;;165.47;12.07;;;;;6.90;97402.00;;;;8383907;28;20306;-71
2021/12/13 19:59:12;;;;;;;216.47;14.10;;;;;6.80;97397.00;;;;8377588;28;20669;-70
2021/12/13 20:03:20;;;;;;;229.20;14.57;;;;;6.80;97398.00;;;;8376305;28;20251;-70
2021/12/13 20:07:27;;;;;;;181.23;13.30;;;;;6.80;97397.00;;;;8380199;28;20303;-70
2021/12/13 20:11:35;;;;;;;339.50;15.50;;;;;6.80;97406.00;;;;8381337;28;20331;-70
2021/12/13 20:15:46;;;;;;;197.00;12.43;;;;;6.80;97405.00;;;;8381639;28;20239;-70
2021/12/13 20:19:52;;;;;;;276.00;13.33;;;;;6.80;97399.00;;;;8383390;28;20264;-71
2021/12/13 20:23:58;;;;;;;172.63;11.90;;;;;6.80;97402.00;;;;8387334;28;20330;-71
2021/12/13 20:28:08;;;;;;;191.13;13.27;;;;;6.80;97397.00;;;;8382413;28;20259;-71
2021/12/13 20:32:15;;;;;;;375.57;16.93;;;;;6.70;97392.00;;;;8393932;28;20928;-71
2021/12/13 20:36:23;;;;;;;209.50;12.37;;;;;6.60;97393.00;;;;8385158;28;20224;-71
2021/12/13 20:40:38;;;;;;;194.13;12.50;;;;;6.60;97392.00;;;;8390860;28;20247;-70
2021/12/13 20:44:48;;;;;;;79.00;8.97;;;;;6.40;97391.00;;;;8383245;28;20327;-70
2021/12/13 20:48:57;;;;;;;26.33;7.93;;;;;6.40;97384.00;;;;8397318;28;20255;-71
2021/12/13 20:53:00;;;;;;;62.13;14.57;;;;;6.50;97383.00;;;;8398023;28;20325;-72